Time;durP1;ratioP1;P1;durP2;ratioP2;P2;SDS_P1;SDS_P2;PMS_P1;PMS_P2;Temp;Humidity;BMP_temperature;BMP_pressure;BME280_temperature;BME280_humidity;BME280_pressure;Samples;Min_cycle;Max_cycle;Signal;HPM_P1;HPM_P2
2024/02/25 00:00:10;;;;;;;9.85;6.32;;;;;;;;;;5884586;28;20060;-80
2024/02/25 00:03:01;;;;;;;10.57;6.47;;;;;;;;;;5885606;28;20060;-79
2024/02/25 00:05:52;;;;;;;11.77;5.35;;;;;;;;;;5886316;28;20049;-80
2024/02/25 00:08:43;;;;;;;7.68;6.88;;;;;;;;;;5886016;28;20045;-80
2024/02/25 00:11:34;;;;;;;11.57;8.65;;;;;;;;;;5885964;28;20053;-80
2024/02/25 00:14:29;;;;;;;15.13;9.80;;;;;;;;;;5868063;28;20080;-80
2024/02/25 00:17:20;;;;;;;11.82;7.10;;;;;;;;;;5884430;28;21070;-80
2024/02/25 00:20:11;;;;;;;9.00;6.35;;;;;;;;;;5883876;28;20064;-80
2024/02/25 00:23:02;;;;;;;11.75;6.38;;;;;;;;;;5883749;28;20590;-79
2024/02/25 00:25:53;;;;;;;10.05;7.25;;;;;;;;;;5885980;28;20045;-80
2024/02/25 00:28:44;;;;;;;9.40;5.97;;;;;;;;;;5885354;28;20419;-80
2024/02/25 00:31:34;;;;;;;11.55;6.47;;;;;;;;;;5885497;28;20051;-80
2024/02/25 00:34:25;;;;;;;6.20;5.57;;;;;;;;;;5884950;28;20055;-80
2024/02/25 00:37:16;;;;;;;11.07;6.60;;;;;;;;;;5884603;28;20048;-80
2024/02/25 00:40:09;;;;;;;16.50;9.15;;;;;;;;;;5884309;28;20049;-80
2024/02/25 00:43:00;;;;;;;17.23;6.75;;;;;;;;;;5868027;28;20041;-80
2024/02/25 00:45:51;;;;;;;6.30;5.47;;;;;;;;;;5883814;28;20064;-80
2024/02/25 00:48:41;;;;;;;6.40;5.57;;;;;;;;;;5884451;28;20524;-80
2024/02/25 00:51:32;;;;;;;7.95;6.72;;;;;;;;;;5867065;28;20174;-80
2024/02/25 00:54:23;;;;;;;10.07;5.90;;;;;;;;;;5883298;28;20506;-80
2024/02/25 00:57:14;;;;;;;8.95;6.47;;;;;;;;;;5883157;28;20049;-80
2024/02/25 01:00:07;;;;;;;10.32;6.63;;;;;;;;;;5883075;28;20131;-80
2024/02/25 01:02:58;;;;;;;9.48;5.35;;;;;;;;;;5873536;28;20068;-80
2024/02/25 01:05:49;;;;;;;10.63;6.22;;;;;;;;;;5922899;28;20502;-80
2024/02/25 01:08:41;;;;;;;9.82;5.93;;;;;;;;;;5906568;28;20078;-80
2024/02/25 01:11:33;;;;;;;5.07;4.28;;;;;;;;;;5906470;28;20037;-80
2024/02/25 01:14:24;;;;;;;7.63;4.65;;;;;;;;;;5908108;28;20128;-80
2024/02/25 01:17:15;;;;;;;4.60;4.15;;;;;;;;;;5906635;28;20494;-80
2024/02/25 01:20:07;;;;;;;6.22;4.15;;;;;;;;;;5906243;28;20055;-80
2024/02/25 01:22:57;;;;;;;3.95;3.58;;;;;;;;;;5923301;28;20048;-80
2024/02/25 01:25:48;;;;;;;6.00;4.85;;;;;;;;;;5907603;28;20067;-80
2024/02/25 01:28:40;;;;;;;5.05;3.90;;;;;;;;;;5922716;28;20052;-80
2024/02/25 01:31:30;;;;;;;12.88;3.67;;;;;;;;;;5906010;28;20037;-80
2024/02/25 01:34:25;;;;;;;4.93;3.70;;;;;;;;;;5907819;28;20044;-80
2024/02/25 01:37:16;;;;;;;6.05;4.55;;;;;;;;;;5907648;28;20056;-80
2024/02/25 01:40:07;;;;;;;4.03;3.58;;;;;;;;;;5922761;28;20074;-80
2024/02/25 01:43:33;;;;;;;4.13;3.72;;;;;;;;;;5907700;28;20609;-80
2024/02/25 01:46:24;;;;;;;3.35;2.53;;;;;;;;;;5889022;28;20569;-80
2024/02/25 01:49:15;;;;;;;3.70;3.17;;;;;;;;;;5911585;28;20064;-80
2024/02/25 01:52:06;;;;;;;3.50;3.17;;;;;;;;;;5910122;28;20072;-80
2024/02/25 01:54:58;;;;;;;5.85;2.88;;;;;;;;;;5927134;28;20475;-80
2024/02/25 01:57:48;;;;;;;5.75;3.47;;;;;;;;;;5909964;28;20040;-80
2024/02/25 02:00:40;;;;;;;3.40;2.97;;;;;;;;;;5910034;28;20425;-80
2024/02/25 02:03:31;;;;;;;9.75;3.70;;;;;;;;;;5911362;28;20049;-80
2024/02/25 02:06:22;;;;;;;5.07;3.47;;;;;;;;;;5909786;28;20044;-80
2024/02/25 02:09:13;;;;;;;7.30;3.78;;;;;;;;;;5911109;28;20491;-80
2024/02/25 02:12:04;;;;;;;8.15;4.57;;;;;;;;;;5926585;28;20052;-80
2024/02/25 02:14:55;;;;;;;3.13;2.88;;;;;;;;;;5909830;28;20047;-80
2024/02/25 02:17:46;;;;;;;3.85;3.17;;;;;;;;;;5926212;28;20525;-80
2024/02/25 02:20:38;;;;;;;4.88;3.40;;;;;;;;;;5926170;28;20068;-80
2024/02/25 02:23:31;;;;;;;1.73;1.63;;;;;;;;;;5925863;28;20041;-80
2024/02/25 02:26:22;;;;;;;5.30;3.13;;;;;;;;;;5925688;28;20913;-80
2024/02/25 02:29:13;;;;;;;2.60;2.33;;;;;;;;;;5910717;28;20054;-80
2024/02/25 02:32:04;;;;;;;4.57;2.58;;;;;;;;;;5910614;28;20079;-79
2024/02/25 02:34:55;;;;;;;4.32;3.22;;;;;;;;;;5911070;28;20179;-80
2024/02/25 02:37:46;;;;;;;3.35;3.05;;;;;;;;;;5909093;28;20048;-80
2024/02/25 02:40:37;;;;;;;4.30;2.70;;;;;;;;;;5925789;28;20044;-80
2024/02/25 02:43:28;;;;;;;5.00;3.45;;;;;;;;;;5908956;28;20453;-80
2024/02/25 02:46:19;;;;;;;4.53;2.95;;;;;;;;;;5908966;28;20514;-80
2024/02/25 02:49:10;;;;;;;2.63;2.30;;;;;;;;;;5925508;28;20048;-80
2024/02/25 02:52:02;;;;;;;2.92;2.53;;;;;;;;;;5925350;28;20051;-79
2024/02/25 02:54:52;;;;;;;6.78;2.95;;;;;;;;;;5925786;28;20410;-80
2024/02/25 02:57:43;;;;;;;2.63;2.42;;;;;;;;;;5908666;28;20524;-80
2024/02/25 03:00:34;;;;;;;4.20;3.25;;;;;;;;;;5910195;28;20041;-80
2024/02/25 03:03:25;;;;;;;4.10;2.42;;;;;;;;;;5908342;28;20052;-80
2024/02/25 03:06:19;;;;;;;4.47;2.92;;;;;;;;;;5908381;28;20044;-80
2024/02/25 03:09:13;;;;;;;6.13;4.57;;;;;;;;;;5908256;28;20048;-80
2024/02/25 03:12:05;;;;;;;6.30;3.53;;;;;;;;;;5908492;28;20521;-79
2024/02/25 03:14:55;;;;;;;8.07;3.80;;;;;;;;;;5910088;28;20102;-80
2024/02/25 03:17:46;;;;;;;14.48;4.45;;;;;;;;;;5924796;28;20074;-80
2024/02/25 03:20:37;;;;;;;7.82;3.10;;;;;;;;;;5907927;28;20044;-80
2024/02/25 03:23:28;;;;;;;7.18;4.47;;;;;;;;;;5924436;28;20102;-80
2024/02/25 03:26:20;;;;;;;9.88;4.90;;;;;;;;;;5924515;28;20051;-80
2024/02/25 03:29:11;;;;;;;5.30;3.00;;;;;;;;;;5908960;28;20076;-80
2024/02/25 03:32:02;;;;;;;9.13;5.38;;;;;;;;;;5907857;28;20055;-79
2024/02/25 03:34:53;;;;;;;4.75;4.28;;;;;;;;;;5924700;28;20052;-80
2024/02/25 03:37:44;;;;;;;8.80;5.45;;;;;;;;;;5907492;28;20409;-80
2024/02/25 03:40:35;;;;;;;7.97;3.83;;;;;;;;;;5907755;28;20045;-80
2024/02/25 03:43:26;;;;;;;5.90;4.43;;;;;;;;;;5924194;28;20044;-80
2024/02/25 03:46:17;;;;;;;7.88;5.65;;;;;;;;;;5907669;28;20055;-80
2024/02/25 03:49:09;;;;;;;3.35;2.80;;;;;;;;;;5908857;28;20048;-79
2024/02/25 03:52:00;;;;;;;5.28;4.15;;;;;;;;;;5909255;28;20044;-80
2024/02/25 03:54:50;;;;;;;4.45;3.53;;;;;;;;;;5924399;28;20513;-80
2024/02/25 03:57:41;;;;;;;5.15;3.92;;;;;;;;;;5907285;28;20066;-80
2024/02/25 04:00:32;;;;;;;8.30;5.28;;;;;;;;;;5923930;28;20049;-80
2024/02/25 04:03:23;;;;;;;4.97;4.10;;;;;;;;;;5923923;28;20044;-80
2024/02/25 04:06:14;;;;;;;5.55;4.22;;;;;;;;;;5907237;28;20056;-80
2024/02/25 04:09:05;;;;;;;8.98;6.70;;;;;;;;;;5923678;28;20049;-80
2024/02/25 04:11:56;;;;;;;6.07;4.32;;;;;;;;;;5924526;28;20045;-80
2024/02/25 04:14:46;;;;;;;5.72;4.15;;;;;;;;;;5923653;28;20048;-80
2024/02/25 04:17:37;;;;;;;4.43;3.55;;;;;;;;;;5908366;28;20040;-80
2024/02/25 04:20:29;;;;;;;5.47;3.97;;;;;;;;;;5923552;28;20048;-79
2024/02/25 04:23:21;;;;;;;6.07;3.80;;;;;;;;;;5906835;28;20059;-80
2024/02/25 04:26:12;;;;;;;3.97;3.50;;;;;;;;;;5923607;28;20414;-80
2024/02/25 04:29:02;;;;;;;6.68;4.93;;;;;;;;;;5923695;28;20158;-79
2024/02/25 04:31:53;;;;;;;6.72;4.80;;;;;;;;;;5924054;28;20525;-80
2024/02/25 04:34:44;;;;;;;4.40;4.00;;;;;;;;;;5908250;28;20044;-80
2024/02/25 04:37:35;;;;;;;6.43;5.05;;;;;;;;;;5890487;28;20135;-80
2024/02/25 04:40:26;;;;;;;5.20;3.88;;;;;;;;;;5923811;28;20045;-80
2024/02/25 04:43:16;;;;;;;10.65;5.13;;;;;;;;;;5890015;28;20124;-80
2024/02/25 04:46:07;;;;;;;9.77;5.15;;;;;;;;;;5908237;28;20051;-79
2024/02/25 04:48:58;;;;;;;4.57;4.18;;;;;;;;;;5908930;28;20067;-80
2024/02/25 04:51:49;;;;;;;7.72;4.88;;;;;;;;;;5908167;28;20414;-80
2024/02/25 04:54:42;;;;;;;3.28;3.08;;;;;;;;;;5924269;28;20056;-80
2024/02/25 04:57:36;;;;;;;10.05;4.57;;;;;;;;;;5907490;28;20048;-80
2024/02/25 05:00:27;;;;;;;7.45;5.50;;;;;;;;;;5907184;28;20045;-80
2024/02/25 05:03:18;;;;;;;8.68;3.72;;;;;;;;;;5907710;28;20104;-80
2024/02/25 05:06:09;;;;;;;5.00;4.20;;;;;;;;;;5922992;28;20054;-80
2024/02/25 05:09:00;;;;;;;10.70;5.38;;;;;;;;;;5890198;28;20041;-80
2024/02/25 05:11:50;;;;;;;4.97;3.03;;;;;;;;;;5923583;28;20131;-80
2024/02/25 05:14:41;;;;;;;5.57;4.65;;;;;;;;;;5923023;28;20041;-80
2024/02/25 05:17:32;;;;;;;7.38;5.32;;;;;;;;;;5907755;28;20037;-80
2024/02/25 05:20:23;;;;;;;7.25;4.07;;;;;;;;;;5910356;28;20051;-80
2024/02/25 05:23:14;;;;;;;5.28;4.22;;;;;;;;;;5910677;28;20052;-80
2024/02/25 05:26:05;;;;;;;4.15;3.75;;;;;;;;;;5910735;28;20052;-79
2024/02/25 05:28:56;;;;;;;6.05;5.10;;;;;;;;;;5910943;28;20205;-80
2024/02/25 05:31:47;;;;;;;7.28;4.03;;;;;;;;;;5926820;28;20048;-80
2024/02/25 05:34:38;;;;;;;9.35;4.95;;;;;;;;;;5910549;28;20044;-80
2024/02/25 05:37:29;;;;;;;5.32;4.05;;;;;;;;;;5927220;28;20490;-80
2024/02/25 05:40:19;;;;;;;5.80;4.50;;;;;;;;;;5911488;28;20068;-80
2024/02/25 05:43:10;;;;;;;5.10;3.42;;;;;;;;;;5910352;28;20055;-80
2024/02/25 05:46:01;;;;;;;10.95;4.25;;;;;;;;;;5910298;28;20049;-79
2024/02/25 05:48:52;;;;;;;11.50;5.30;;;;;;;;;;5927327;28;20049;-80
2024/02/25 05:51:43;;;;;;;4.65;3.78;;;;;;;;;;5909987;28;20090;-80
2024/02/25 05:54:35;;;;;;;7.35;4.40;;;;;;;;;;5926838;28;20048;-80
2024/02/25 05:57:26;;;;;;;10.70;3.58;;;;;;;;;;5910773;28;20051;-79
2024/02/25 06:00:17;;;;;;;3.40;2.70;;;;;;;;;;5926891;28;20044;-79
2024/02/25 06:03:08;;;;;;;8.20;4.18;;;;;;;;;;5909797;28;20049;-79
2024/02/25 06:05:59;;;;;;;3.00;2.70;;;;;;;;;;5911651;28;20063;-79
2024/02/25 06:08:50;;;;;;;11.38;2.97;;;;;;;;;;5911520;28;20051;-80
2024/02/25 06:11:41;;;;;;;3.28;2.60;;;;;;;;;;5926569;28;20039;-79
2024/02/25 06:14:32;;;;;;;5.88;2.88;;;;;;;;;;5909508;28;20124;-80
2024/02/25 06:17:23;;;;;;;6.70;5.05;;;;;;;;;;5909191;28;20112;-80
2024/02/25 06:20:14;;;;;;;5.10;3.75;;;;;;;;;;5910947;28;20061;-79
2024/02/25 06:23:07;;;;;;;11.98;5.60;;;;;;;;;;5909372;28;20044;-79
2024/02/25 06:25:58;;;;;;;5.38;3.97;;;;;;;;;;5911386;28;20159;-80
2024/02/25 06:28:48;;;;;;;7.75;4.70;;;;;;;;;;5910614;28;20422;-79
2024/02/25 06:31:39;;;;;;;9.75;3.05;;;;;;;;;;5910309;28;20063;-80
2024/02/25 06:34:30;;;;;;;4.18;3.10;;;;;;;;;;5925973;28;20040;-80
2024/02/25 06:37:21;;;;;;;5.18;3.45;;;;;;;;;;5909270;28;20056;-79
2024/02/25 06:40:13;;;;;;;5.93;3.45;;;;;;;;;;5925772;28;20426;-80
2024/02/25 06:43:08;;;;;;;12.10;4.20;;;;;;;;;;5909241;28;20052;-79
2024/02/25 06:46:03;;;;;;;8.90;4.43;;;;;;;;;;5909418;28;20040;-80
2024/02/25 06:48:54;;;;;;;7.65;3.35;;;;;;;;;;5909294;28;20352;-80
2024/02/25 06:51:45;;;;;;;5.28;3.20;;;;;;;;;;5892502;28;20548;-80
2024/02/25 06:54:36;;;;;;;8.65;3.10;;;;;;;;;;5908888;28;20414;-80
2024/02/25 06:57:27;;;;;;;5.57;3.65;;;;;;;;;;5925878;28;20580;-80
2024/02/25 07:00:18;;;;;;;3.05;2.75;;;;;;;;;;5925045;28;20044;-79
2024/02/25 07:03:09;;;;;;;5.53;2.00;;;;;;;;;;5925147;28;20052;-79
2024/02/25 07:06:00;;;;;;;19.65;4.30;;;;;;;;;;5925825;28;20051;-80
2024/02/25 07:08:51;;;;;;;6.28;2.63;;;;;;;;;;5908501;28;20558;-79
2024/02/25 07:11:42;;;;;;;5.90;2.50;;;;;;;;;;5909688;28;20435;-79
2024/02/25 07:14:33;;;;;;;3.60;2.05;;;;;;;;;;5909745;28;20113;-79
2024/02/25 07:17:24;;;;;;;4.03;3.22;;;;;;;;;;5908403;28;20106;-79
2024/02/25 07:20:15;;;;;;;6.35;2.72;;;;;;;;;;5924885;28;20048;-79
2024/02/25 07:23:06;;;;;;;4.60;2.65;;;;;;;;;;5924777;28;20055;-79
2024/02/25 07:25:57;;;;;;;5.10;4.05;;;;;;;;;;5925185;28;20044;-80
2024/02/25 07:28:47;;;;;;;5.35;2.95;;;;;;;;;;5909340;28;20056;-80
2024/02/25 07:31:39;;;;;;;13.52;4.75;;;;;;;;;;5907771;28;20043;-80
2024/02/25 07:34:30;;;;;;;8.90;2.92;;;;;;;;;;5907608;28;20036;-79
2024/02/25 07:37:21;;;;;;;7.45;4.13;;;;;;;;;;5907660;28;20087;-80
2024/02/25 07:40:14;;;;;;;5.82;3.92;;;;;;;;;;5923761;28;20048;-80
2024/02/25 07:43:05;;;;;;;9.75;3.28;;;;;;;;;;5923576;28;20040;-80
2024/02/25 07:45:56;;;;;;;5.10;3.38;;;;;;;;;;5909572;28;20044;-80
2024/02/25 07:48:47;;;;;;;3.50;2.63;;;;;;;;;;5907524;28;20414;-80
2024/02/25 07:51:38;;;;;;;8.20;3.17;;;;;;;;;;5924129;28;20151;-80
2024/02/25 07:54:29;;;;;;;6.00;2.20;;;;;;;;;;5907353;28;20410;-80
2024/02/25 07:57:20;;;;;;;1.98;1.77;;;;;;;;;;5906901;28;20063;-80
2024/02/25 08:00:11;;;;;;;3.45;2.28;;;;;;;;;;5907255;28;20046;-80
2024/02/25 08:03:03;;;;;;;4.05;2.47;;;;;;;;;;5924051;28;20115;-80
2024/02/25 08:05:54;;;;;;;2.50;1.20;;;;;;;;;;5924080;28;20045;-81
2024/02/25 08:08:45;;;;;;;2.25;1.52;;;;;;;;;;5923871;28;20123;-81
2024/02/25 08:11:36;;;;;;;2.38;1.80;;;;;;;;;;5923871;28;20460;-80
2024/02/25 08:14:26;;;;;;;2.67;1.58;;;;;;;;;;5907012;28;20044;-81
2024/02/25 08:17:17;;;;;;;5.50;3.65;;;;;;;;;;5908515;28;20045;-80
2024/02/25 08:20:09;;;;;;;7.97;4.60;;;;;;;;;;5907071;28;20514;-80
2024/02/25 08:22:59;;;;;;;4.50;2.45;;;;;;;;;;5890931;28;20415;-80
2024/02/25 08:25:50;;;;;;;8.40;3.50;;;;;;;;;;5924148;28;20068;-80
2024/02/25 08:28:42;;;;;;;1.70;1.10;;;;;;;;;;5906722;28;20116;-80
2024/02/25 08:31:33;;;;;;;17.42;10.38;;;;;;;;;;5908086;28;20048;-81
2024/02/25 08:34:25;;;;;;;1.50;1.40;;;;;;;;;;5923436;28;20048;-81
2024/02/25 08:37:16;;;;;;;8.93;4.75;;;;;;;;;;5923400;28;20048;-80
2024/02/25 08:40:07;;;;;;;0.95;0.75;;;;;;;;;;5923455;28;20494;-80
2024/02/25 08:42:58;;;;;;;1.98;1.33;;;;;;;;;;5923795;28;20491;-81
2024/02/25 08:45:49;;;;;;;3.05;0.98;;;;;;;;;;5923995;28;20052;-81
2024/02/25 08:48:40;;;;;;;1.08;0.70;;;;;;;;;;5924493;28;20517;-81
2024/02/25 08:51:31;;;;;;;3.45;1.73;;;;;;;;;;5924798;28;20178;-81
2024/02/25 08:54:22;;;;;;;9.73;1.70;;;;;;;;;;5911899;28;20044;-81
2024/02/25 08:57:13;;;;;;;3.72;1.58;;;;;;;;;;5928612;28;20060;-81
2024/02/25 09:00:07;;;;;;;0.30;0.30;;;;;;;;;;5912691;28;20059;-80
2024/02/25 09:03:00;;;;;;;7.65;2.95;;;;;;;;;;5913130;28;20052;-81
2024/02/25 09:05:51;;;;;;;1.30;1.20;;;;;;;;;;5913394;28;20066;-81
2024/02/25 09:08:42;;;;;;;2.53;1.35;;;;;;;;;;5928708;28;20431;-81
2024/02/25 09:11:33;;;;;;;3.00;0.95;;;;;;;;;;5912215;28;20836;-81
2024/02/25 09:14:24;;;;;;;0.65;0.40;;;;;;;;;;5911993;28;20049;-80
2024/02/25 09:17:15;;;;;;;2.70;1.40;;;;;;;;;;5928961;28;20049;-81
2024/02/25 09:20:09;;;;;;;1.85;0.95;;;;;;;;;;5915302;28;20049;-81
2024/02/25 09:23:04;;;;;;;1.77;0.75;;;;;;;;;;5930346;28;20048;-81
2024/02/25 09:25:55;;;;;;;0.70;0.30;;;;;;;;;;5912753;28;20450;-81
2024/02/25 09:28:46;;;;;;;0.95;0.65;;;;;;;;;;5928792;28;20036;-81
2024/02/25 09:31:37;;;;;;;0.82;0.32;;;;;;;;;;5912088;28;20045;-81
2024/02/25 09:34:28;;;;;;;1.95;0.38;;;;;;;;;;5930420;28;20045;-81
2024/02/25 09:37:19;;;;;;;2.47;0.82;;;;;;;;;;5923721;28;20068;-81
2024/02/25 09:40:10;;;;;;;2.22;0.93;;;;;;;;;;5914256;28;20048;-81
2024/02/25 09:43:01;;;;;;;2.63;0.80;;;;;;;;;;5912427;28;20059;-80
2024/02/25 09:45:56;;;;;;;1.48;0.90;;;;;;;;;;5929542;28;20722;-81
2024/02/25 09:48:54;;;;;;;0.75;0.65;;;;;;;;;;5928680;28;20055;-81
2024/02/25 09:51:51;;;;;;;0.40;0.40;;;;;;;;;;5931497;28;20047;-81
2024/02/25 09:54:43;;;;;;;1.52;0.73;;;;;;;;;;5911425;28;20048;-81
2024/02/25 09:57:33;;;;;;;4.60;2.67;;;;;;;;;;5928095;28;20498;-82
2024/02/25 10:00:24;;;;;;;1.95;0.70;;;;;;;;;;5911479;28;20055;-81
2024/02/25 10:03:15;;;;;;;4.88;2.33;;;;;;;;;;5928467;28;20060;-82
2024/02/25 10:06:06;;;;;;;5.30;2.10;;;;;;;;;;5926695;28;20538;-81
2024/02/25 10:08:57;;;;;;;1.33;1.23;;;;;;;;;;5912793;28;20124;-81
2024/02/25 10:11:48;;;;;;;2.35;1.15;;;;;;;;;;5911658;28;20043;-81
2024/02/25 10:14:40;;;;;;;1.25;0.82;;;;;;;;;;5928544;28;20517;-82
2024/02/25 10:17:33;;;;;;;0.95;0.75;;;;;;;;;;5913223;28;20067;-81
2024/02/25 10:20:25;;;;;;;5.80;1.55;;;;;;;;;;5911118;28;20040;-81
2024/02/25 10:23:15;;;;;;;1.08;0.68;;;;;;;;;;5910389;28;20048;-81
2024/02/25 10:26:18;;;;;;;3.95;1.02;;;;;;;;;;5927134;28;20422;-81
2024/02/25 10:29:09;;;;;;;2.85;0.98;;;;;;;;;;5910152;28;20048;-82
2024/02/25 10:32:00;;;;;;;1.20;1.08;;;;;;;;;;5910239;28;20053;-82
2024/02/25 10:34:56;;;;;;;1.23;0.68;;;;;;;;;;5928048;28;20040;-82
2024/02/25 10:37:49;;;;;;;3.03;1.50;;;;;;;;;;5925794;28;20622;-82
2024/02/25 10:40:43;;;;;;;1.42;1.05;;;;;;;;;;5909400;28;20067;-82
2024/02/25 10:43:35;;;;;;;3.70;1.15;;;;;;;;;;5909304;28;20433;-82
2024/02/25 10:46:44;;;;;;;2.25;1.45;;;;;;;;;;5909638;28;20604;-82
2024/02/25 10:49:38;;;;;;;1.25;0.90;;;;;;;;;;5925775;28;20509;-82
2024/02/25 10:52:30;;;;;;;0.75;0.75;;;;;;;;;;5909215;28;20410;-82
2024/02/25 10:55:21;;;;;;;0.68;0.68;;;;;;;;;;5908791;28;20051;-82
2024/02/25 10:58:16;;;;;;;0.55;0.55;;;;;;;;;;5925937;28;20052;-83
2024/02/25 11:01:09;;;;;;;1.10;0.75;;;;;;;;;;5910766;28;20053;-82
2024/02/25 11:04:00;;;;;;;2.35;1.50;;;;;;;;;;5909295;28;20301;-82
2024/02/25 11:06:54;;;;;;;1.67;0.68;;;;;;;;;;5894724;28;20045;-83
2024/02/25 11:09:48;;;;;;;2.42;1.10;;;;;;;;;;5911239;28;20048;-82
2024/02/25 11:12:41;;;;;;;17.52;1.88;;;;;;;;;;5912052;28;20194;-82
2024/02/25 11:15:32;;;;;;;2.72;1.10;;;;;;;;;;5910421;28;20113;-82
2024/02/25 11:18:26;;;;;;;1.42;0.93;;;;;;;;;;5911849;28;20041;-83
2024/02/25 11:21:19;;;;;;;1.58;1.20;;;;;;;;;;5894906;28;20049;-82
2024/02/25 11:24:13;;;;;;;1.75;0.93;;;;;;;;;;5913171;28;20079;-82
2024/02/25 11:27:04;;;;;;;2.00;1.02;;;;;;;;;;5924933;28;20052;-82
2024/02/25 11:30:15;;;;;;;2.92;1.50;;;;;;;;;;5929993;28;20043;-82
2024/02/25 11:33:33;;;;;;;9.70;4.78;;;;;;;;;;5907797;28;20060;-82
2024/02/25 11:36:25;;;;;;;1.13;0.98;;;;;;;;;;5915622;28;20040;-82
2024/02/25 11:39:28;;;;;;;2.33;1.15;;;;;;;;;;5908483;28;20410;-83
2024/02/25 11:42:20;;;;;;;5.97;4.07;;;;;;;;;;5908740;28;20052;-82
2024/02/25 11:45:11;;;;;;;2.47;1.50;;;;;;;;;;5909913;28;20040;-82
2024/02/25 11:48:02;;;;;;;2.88;1.52;;;;;;;;;;5909684;28;20072;-81
2024/02/25 11:50:56;;;;;;;4.90;0.75;;;;;;;;;;5896094;28;20040;-82
2024/02/25 11:53:53;;;;;;;1.17;0.85;;;;;;;;;;5925957;28;20086;-82
2024/02/25 11:56:44;;;;;;;7.18;1.67;;;;;;;;;;5925055;28;20131;-82
2024/02/25 11:59:35;;;;;;;2.80;2.08;;;;;;;;;;5907795;28;20055;-82
2024/02/25 12:02:28;;;;;;;3.55;1.63;;;;;;;;;;5908176;28;20186;-82
2024/02/25 12:05:19;;;;;;;1.70;0.77;;;;;;;;;;5908538;28;20413;-82
2024/02/25 12:08:14;;;;;;;3.75;1.70;;;;;;;;;;5908826;28;20045;-82
2024/02/25 12:11:07;;;;;;;11.52;1.92;;;;;;;;;;5909781;28;20055;-81
2024/02/25 12:14:16;;;;;;;2.05;1.13;;;;;;;;;;5925747;28;20506;-82
2024/02/25 12:17:11;;;;;;;2.10;1.10;;;;;;;;;;5926069;28;20053;-81
2024/02/25 12:20:02;;;;;;;1.10;0.90;;;;;;;;;;5928234;28;20135;-81
2024/02/25 12:22:53;;;;;;;2.33;0.98;;;;;;;;;;5928683;28;20048;-82
2024/02/25 12:25:45;;;;;;;1.42;1.05;;;;;;;;;;5912161;28;20036;-81
2024/02/25 12:28:37;;;;;;;2.22;1.17;;;;;;;;;;5928218;28;20044;-81
2024/02/25 12:31:28;;;;;;;2.08;1.10;;;;;;;;;;5895951;28;20070;-81
2024/02/25 12:34:20;;;;;;;1.60;1.20;;;;;;;;;;5913505;28;20516;-82
2024/02/25 12:37:14;;;;;;;7.30;3.88;;;;;;;;;;5910544;28;20040;-82
2024/02/25 12:40:08;;;;;;;1.60;1.33;;;;;;;;;;5908659;28;20048;-81
2024/02/25 12:43:00;;;;;;;3.53;1.45;;;;;;;;;;5909704;28;20094;-81
2024/02/25 12:45:51;;;;;;;2.47;1.55;;;;;;;;;;5891754;28;20052;-81
2024/02/25 12:48:42;;;;;;;1.70;1.42;;;;;;;;;;5908182;28;20503;-81
2024/02/25 12:51:33;;;;;;;4.10;1.73;;;;;;;;;;5908876;28;20037;-82
2024/02/25 12:54:24;;;;;;;8.32;1.60;;;;;;;;;;5923981;28;20070;-81
2024/02/25 12:57:15;;;;;;;1.70;1.15;;;;;;;;;;5906983;28;20086;-81
2024/02/25 13:00:07;;;;;;;1.42;1.13;;;;;;;;;;5924023;28;20056;-81
2024/02/25 13:03:07;;;;;;;1.65;0.68;;;;;;;;;;5910918;28;20482;-81
2024/02/25 13:05:58;;;;;;;2.63;1.67;;;;;;;;;;5912599;28;20044;-81
2024/02/25 13:08:51;;;;;;;2.83;0.95;;;;;;;;;;5908844;28;20127;-81
2024/02/25 13:11:42;;;;;;;3.10;1.08;;;;;;;;;;5913139;28;20036;-82
2024/02/25 13:14:33;;;;;;;5.75;3.15;;;;;;;;;;5929476;28;20128;-81
2024/02/25 13:17:24;;;;;;;1.73;1.27;;;;;;;;;;5912468;28;20041;-81
2024/02/25 13:20:16;;;;;;;1.23;0.88;;;;;;;;;;5910649;28;20058;-81
2024/02/25 13:23:06;;;;;;;0.80;0.63;;;;;;;;;;5923172;28;20055;-81
2024/02/25 13:26:01;;;;;;;2.70;1.42;;;;;;;;;;5907227;28;20040;-81
2024/02/25 13:28:52;;;;;;;4.57;1.27;;;;;;;;;;5923523;28;20056;-81
2024/02/25 13:31:43;;;;;;;1.90;0.85;;;;;;;;;;5907103;28;20075;-81
2024/02/25 13:34:33;;;;;;;0.43;0.38;;;;;;;;;;5925328;28;20051;-81
2024/02/25 13:37:25;;;;;;;0.65;0.55;;;;;;;;;;5924261;28;20053;-80
2024/02/25 13:40:16;;;;;;;0.38;0.38;;;;;;;;;;5909059;28;20048;-81
2024/02/25 13:43:10;;;;;;;2.85;0.38;;;;;;;;;;5911138;28;20056;-81
2024/02/25 13:46:01;;;;;;;0.77;0.52;;;;;;;;;;5911066;28;20048;-81
2024/02/25 13:48:52;;;;;;;1.08;0.75;;;;;;;;;;5928230;28;20040;-81
2024/02/25 13:51:43;;;;;;;1.35;0.77;;;;;;;;;;5927626;28;20410;-81
2024/02/25 13:54:34;;;;;;;1.13;0.65;;;;;;;;;;5911863;28;20078;-81
2024/02/25 13:57:27;;;;;;;1.48;1.10;;;;;;;;;;5928454;28;20048;-81
2024/02/25 14:00:18;;;;;;;1.35;0.38;;;;;;;;;;5931195;28;20051;-80
2024/02/25 14:03:10;;;;;;;0.70;0.50;;;;;;;;;;5914820;28;20495;-80
2024/02/25 14:06:02;;;;;;;0.98;0.50;;;;;;;;;;5911713;28;20059;-80
2024/02/25 14:08:55;;;;;;;10.50;0.82;;;;;;;;;;5913682;28;20048;-80
2024/02/25 14:11:47;;;;;;;1.58;1.00;;;;;;;;;;5927630;28;20086;-81
2024/02/25 14:14:43;;;;;;;0.30;0.10;;;;;;;;;;5912136;28;20123;-81
2024/02/25 14:17:35;;;;;;;0.40;0.40;;;;;;;;;;5910886;28;20045;-80
2024/02/25 14:20:28;;;;;;;4.05;1.75;;;;;;;;;;5910705;28;20040;-81
2024/02/25 14:23:25;;;;;;;5.57;2.78;;;;;;;;;;5913997;28;20050;-81
2024/02/25 14:26:16;;;;;;;0.93;0.73;;;;;;;;;;5913321;28;20052;-81
2024/02/25 14:29:07;;;;;;;0.50;0.50;;;;;;;;;;5912680;28;20434;-80
2024/02/25 14:31:58;;;;;;;0.65;0.50;;;;;;;;;;5916032;28;20044;-80
2024/02/25 14:34:52;;;;;;;1.85;0.60;;;;;;;;;;5913521;28;20123;-81
2024/02/25 14:37:47;;;;;;;0.57;0.57;;;;;;;;;;5912573;28;20044;-81
2024/02/25 14:40:38;;;;;;;1.45;0.75;;;;;;;;;;5930569;28;20036;-81
2024/02/25 14:43:29;;;;;;;1.80;0.88;;;;;;;;;;5912827;28;20123;-81
2024/02/25 14:46:20;;;;;;;0.65;0.60;;;;;;;;;;5911252;28;20040;-81
2024/02/25 14:49:14;;;;;;;12.48;1.13;;;;;;;;;;5929651;28;20106;-80
2024/02/25 14:52:05;;;;;;;7.05;1.83;;;;;;;;;;5927637;28;20059;-80
2024/02/25 14:54:57;;;;;;;3.72;1.02;;;;;;;;;;5910675;28;20120;-80
2024/02/25 14:57:48;;;;;;;6.00;3.65;;;;;;;;;;5911033;28;20115;-80
2024/02/25 15:00:39;;;;;;;28.10;13.90;;;;;;;;;;5926135;28;20045;-80
2024/02/25 15:03:30;;;;;;;8.13;4.10;;;;;;;;;;5909966;28;20047;-80
2024/02/25 15:06:23;;;;;;;23.75;11.18;;;;;;;;;;5910096;28;20060;-80
2024/02/25 15:09:14;;;;;;;15.52;8.93;;;;;;;;;;5925302;28;20134;-81
2024/02/25 15:12:05;;;;;;;37.08;19.63;;;;;;;;;;5909545;28;20423;-80
2024/02/25 15:14:57;;;;;;;43.63;20.98;;;;;;;;;;5927327;28;20044;-81
2024/02/25 15:17:51;;;;;;;55.08;29.77;;;;;;;;;;5911029;28;20036;-81
2024/02/25 15:20:42;;;;;;;19.50;10.40;;;;;;;;;;5911491;28;20044;-81
2024/02/25 15:23:33;;;;;;;11.23;7.13;;;;;;;;;;5909578;28;20140;-80
2024/02/25 15:26:24;;;;;;;13.65;5.05;;;;;;;;;;5910913;28;20055;-80
2024/02/25 15:29:15;;;;;;;8.30;5.38;;;;;;;;;;5925635;28;20055;-80
2024/02/25 15:32:06;;;;;;;9.55;5.80;;;;;;;;;;5909189;28;20421;-81
2024/02/25 15:34:56;;;;;;;8.57;4.82;;;;;;;;;;5909768;28;20036;-81
2024/02/25 15:37:47;;;;;;;11.98;5.80;;;;;;;;;;5910363;28;20094;-81
2024/02/25 15:40:39;;;;;;;13.10;6.55;;;;;;;;;;5911435;28;20044;-81
2024/02/25 15:43:30;;;;;;;12.90;5.45;;;;;;;;;;5909072;28;20036;-80
2024/02/25 15:46:22;;;;;;;7.63;5.20;;;;;;;;;;5925825;28;20048;-81
2024/02/25 15:49:13;;;;;;;10.95;5.72;;;;;;;;;;5911088;28;20242;-80
2024/02/25 15:52:04;;;;;;;17.42;9.18;;;;;;;;;;5910701;28;20060;-80
2024/02/25 15:54:55;;;;;;;10.57;6.28;;;;;;;;;;5914867;28;20051;-81
2024/02/25 15:57:47;;;;;;;8.75;4.50;;;;;;;;;;5926619;28;20055;-81
2024/02/25 16:00:41;;;;;;;8.48;4.88;;;;;;;;;;5912728;28;20041;-81
2024/02/25 16:03:32;;;;;;;10.15;3.28;;;;;;;;;;5926001;28;20504;-80
2024/02/25 16:06:23;;;;;;;7.85;3.50;;;;;;;;;;5908540;28;20549;-80
2024/02/25 16:09:14;;;;;;;10.70;6.68;;;;;;;;;;5908497;28;20068;-80
2024/02/25 16:12:07;;;;;;;10.48;6.03;;;;;;;;;;5908102;28;20053;-80
2024/02/25 16:14:59;;;;;;;11.65;5.85;;;;;;;;;;5925988;28;20068;-80
2024/02/25 16:17:51;;;;;;;15.25;8.65;;;;;;;;;;5908622;28;20047;-80
2024/02/25 16:20:42;;;;;;;17.00;7.20;;;;;;;;;;5907625;28;20474;-80
2024/02/25 16:23:33;;;;;;;14.70;7.68;;;;;;;;;;5924184;28;20094;-80
2024/02/25 16:26:25;;;;;;;15.90;7.95;;;;;;;;;;5924763;28;20513;-80
2024/02/25 16:29:16;;;;;;;13.60;8.02;;;;;;;;;;5908049;28;20044;-81
2024/02/25 16:32:07;;;;;;;22.30;10.38;;;;;;;;;;5907485;28;20045;-81
2024/02/25 16:35:02;;;;;;;11.32;9.10;;;;;;;;;;5924078;28;20041;-81
2024/02/25 16:37:55;;;;;;;9.73;7.10;;;;;;;;;;5907956;28;20150;-81
2024/02/25 16:40:46;;;;;;;8.45;5.35;;;;;;;;;;5907704;28;20071;-81
2024/02/25 16:43:36;;;;;;;18.02;9.15;;;;;;;;;;5924739;28;20429;-81
2024/02/25 16:46:27;;;;;;;13.68;7.95;;;;;;;;;;5907420;28;20048;-81
2024/02/25 16:49:18;;;;;;;11.85;7.00;;;;;;;;;;5908818;28;20048;-81
2024/02/25 16:52:09;;;;;;;11.00;5.05;;;;;;;;;;5909282;28;20131;-81
2024/02/25 16:55:00;;;;;;;9.88;5.93;;;;;;;;;;5924687;28;20497;-81
2024/02/25 16:57:53;;;;;;;19.10;5.55;;;;;;;;;;5924444;28;20418;-81
2024/02/25 17:00:43;;;;;;;13.57;7.45;;;;;;;;;;5924143;28;20044;-81
2024/02/25 17:03:34;;;;;;;18.65;7.20;;;;;;;;;;5907084;28;20049;-81
2024/02/25 17:06:25;;;;;;;17.23;7.32;;;;;;;;;;5908351;28;20048;-81